Avalon, New Jersey
Current Conditions -  °F | °C
As of 5:15 PM on Sunday 25 Jan 2015 (Local Time) from KWWD Reporting Station
Overcast Overcast  
Wind Chill:   Ceiling: 4900
Heat Index:   Visibility: 10mi
Dew Point: -1°   Wind: 0mph
Humidity: 57%   Direction: NA
Pressure: 29.83"   Gusts: NA
Location:  39.1°N, 74.72°W
Report Text: KWWD 252215Z AUTO 00000KT 10SM OVC049 07/M01 A2983 RMK AO1
Loading
Personal Weather Stations






























Interactive Weather Map New forecast layout! Learn more

10-Day Weather Forecast

Advertisements
Track Severe Weather on mobile